createdAt,value
2022-11-19T00:02:17.880Z,99.96
2022-11-19T00:05:05.129Z,100.00
2022-11-19T00:07:52.814Z,100.00
2022-11-19T00:10:40.202Z,100.00
2022-11-19T00:13:27.200Z,100.00
2022-11-19T00:16:14.685Z,99.96
2022-11-19T00:19:01.654Z,98.60
2022-11-19T00:21:50.133Z,99.25
2022-11-19T00:24:37.051Z,100.00
2022-11-19T00:27:24.213Z,97.89
2022-11-19T00:30:32.812Z,98.76
2022-11-19T00:33:19.015Z,98.56
2022-11-19T00:36:08.358Z,99.15
2022-11-19T00:38:55.749Z,98.36
2022-11-19T00:41:42.718Z,100.00
2022-11-19T00:44:35.630Z,99.67
2022-11-19T00:47:24.095Z,100.00
2022-11-19T00:50:11.190Z,100.00
2022-11-19T00:52:59.584Z,98.09
2022-11-19T00:55:46.724Z,98.43
2022-11-19T00:58:34.258Z,99.55
2022-11-19T01:01:23.656Z,98.13
2022-11-19T01:04:10.763Z,98.04
2022-11-19T01:06:57.969Z,98.13
2022-11-19T01:09:47.301Z,99.49
2022-11-19T01:12:54.330Z,97.95
2022-11-19T01:15:41.327Z,97.70
2022-11-19T01:18:28.909Z,98.35
2022-11-19T01:21:17.164Z,97.86
2022-11-19T01:24:04.877Z,98.13
2022-11-19T01:26:51.841Z,97.42
2022-11-19T01:29:38.972Z,97.38
2022-11-19T01:32:25.885Z,96.70
2022-11-19T01:35:12.863Z,96.86
2022-11-19T01:38:01.076Z,95.92
2022-11-19T01:40:48.202Z,95.12
2022-11-19T01:43:52.997Z,95.50
2022-11-19T01:46:40.133Z,95.91
2022-11-19T01:49:27.194Z,94.67
2022-11-19T01:52:14.338Z,94.61
2022-11-19T01:55:02.070Z,94.30
2022-11-19T01:57:54.610Z,95.06
2022-11-19T02:00:41.701Z,95.16
2022-11-19T02:03:31.133Z,95.88
2022-11-19T02:06:18.244Z,94.38
2022-11-19T02:09:05.374Z,94.54
2022-11-19T02:12:08.776Z,94.72
2022-11-19T02:15:31.205Z,94.51
2022-11-19T02:18:47.035Z,93.74
2022-11-19T02:21:40.637Z,94.64
2022-11-19T02:24:42.849Z,95.79
2022-11-19T02:28:18.589Z,96.82
2022-11-19T02:31:26.925Z,96.57
2022-11-19T02:34:24.696Z,97.41
2022-11-19T02:37:34.970Z,97.58
2022-11-19T02:40:30.342Z,97.85
2022-11-19T02:43:23.291Z,97.20
2022-11-19T02:46:14.044Z,97.11
2022-11-19T02:49:01.921Z,97.82
2022-11-19T02:51:50.538Z,99.74
2022-11-19T02:54:37.563Z,100.00
2022-11-19T02:57:24.724Z,100.00
2022-11-19T03:00:31.230Z,100.00
2022-11-19T03:03:40.018Z,100.00
2022-11-19T03:06:32.575Z,100.00
2022-11-19T03:09:20.284Z,100.00
2022-11-19T03:12:22.786Z,100.00
2022-11-19T03:16:02.619Z,100.00
2022-11-19T03:19:06.145Z,100.00
2022-11-19T03:22:03.798Z,100.00
2022-11-19T03:24:57.276Z,100.00
2022-11-19T03:27:50.792Z,100.00
2022-11-19T03:30:40.139Z,100.00
2022-11-19T03:33:33.281Z,100.00
2022-11-19T03:36:32.397Z,100.00
2022-11-19T03:39:21.616Z,100.00
2022-11-19T03:42:13.178Z,100.00
2022-11-19T03:45:05.022Z,100.00
2022-11-19T03:47:53.801Z,100.00
2022-11-19T03:50:58.058Z,100.00
2022-11-19T03:53:45.159Z,100.00
2022-11-19T03:56:36.914Z,100.00
2022-11-19T03:59:29.220Z,100.00
2022-11-19T04:02:17.118Z,100.00
2022-11-19T04:05:04.558Z,100.00
2022-11-19T04:07:51.707Z,100.00
2022-11-19T04:10:38.965Z,100.00
2022-11-19T04:13:25.942Z,100.00
2022-11-19T04:16:13.114Z,100.00
2022-11-19T04:19:00.277Z,100.00
2022-11-19T04:21:47.354Z,99.71
2022-11-19T04:24:34.285Z,100.00
2022-11-19T04:27:21.528Z,100.00
2022-11-19T04:30:09.774Z,100.00
2022-11-19T04:32:56.725Z,100.00
2022-11-19T04:35:46.485Z,100.00
2022-11-19T04:38:34.837Z,100.00
2022-11-19T04:41:21.956Z,100.00
2022-11-19T04:44:08.929Z,100.00
2022-11-19T04:46:55.988Z,99.91
2022-11-19T04:49:43.156Z,100.00
2022-11-19T04:52:34.148Z,98.42
2022-11-19T04:55:24.726Z,99.61
2022-11-19T04:58:11.643Z,100.00
2022-11-19T05:00:58.808Z,99.18
2022-11-19T05:03:46.534Z,99.39
2022-11-19T05:06:33.606Z,98.39
2022-11-19T05:09:20.816Z,97.95
2022-11-19T05:12:08.307Z,97.46
2022-11-19T05:14:55.425Z,96.08
2022-11-19T05:17:42.391Z,96.99
2022-11-19T05:20:29.293Z,95.64
2022-11-19T05:23:16.475Z,95.93
2022-11-19T05:26:03.758Z,94.28
2022-11-19T05:28:50.726Z,94.49
2022-11-19T05:31:37.644Z,96.43
2022-11-19T05:34:24.816Z,94.86
2022-11-19T05:37:11.937Z,94.13
2022-11-19T05:39:58.820Z,94.80
2022-11-19T05:42:45.758Z,97.50
2022-11-19T05:45:33.444Z,95.33
2022-11-19T05:48:20.563Z,94.93
2022-11-19T05:51:07.541Z,95.16
2022-11-19T05:53:54.509Z,98.17
2022-11-19T05:56:41.725Z,97.10
2022-11-19T05:59:28.887Z,95.19
2022-11-19T06:02:15.797Z,95.37
2022-11-19T06:05:02.930Z,96.91
2022-11-19T06:07:50.108Z,96.74
2022-11-19T06:10:37.267Z,96.80
2022-11-19T06:13:24.282Z,97.52
2022-11-19T06:16:11.203Z,95.83
2022-11-19T06:18:58.361Z,96.86
2022-11-19T06:21:45.838Z,97.45
2022-11-19T06:24:32.814Z,96.20
2022-11-19T06:27:19.740Z,96.40
2022-11-19T06:30:07.895Z,97.15
2022-11-19T06:32:54.988Z,96.25
2022-11-19T06:35:41.940Z,98.53
2022-11-19T06:38:29.332Z,96.61
2022-11-19T06:41:16.966Z,94.87
2022-11-19T06:44:04.175Z,95.47
2022-11-19T06:46:51.149Z,93.91
2022-11-19T06:49:38.073Z,93.87
2022-11-19T06:52:25.684Z,94.24
2022-11-19T06:55:13.517Z,96.47
2022-11-19T06:58:04.442Z,95.90
2022-11-19T07:00:51.510Z,95.45
2022-11-19T07:03:38.874Z,95.60
2022-11-19T07:06:25.966Z,94.44
2022-11-19T07:09:12.851Z,96.11
2022-11-19T07:11:59.763Z,96.85
2022-11-19T07:14:46.906Z,97.44
2022-11-19T07:17:34.219Z,96.87
2022-11-19T07:20:21.237Z,94.82
2022-11-19T07:23:11.294Z,94.85
2022-11-19T07:26:01.819Z,95.45
2022-11-19T07:28:48.999Z,95.34
2022-11-19T07:31:36.058Z,93.83
2022-11-19T07:34:23.029Z,93.01
2022-11-19T07:37:10.176Z,94.92
2022-11-19T07:39:57.090Z,92.70
2022-11-19T07:42:50.262Z,94.45
2022-11-19T07:45:37.865Z,94.63
2022-11-19T07:48:24.782Z,93.53
2022-11-19T07:51:11.801Z,94.04
2022-11-19T07:53:58.773Z,95.27
2022-11-19T07:56:46.017Z,94.29
2022-11-19T07:59:33.996Z,94.30
2022-11-19T08:02:21.111Z,93.38
2022-11-19T08:05:08.588Z,93.07
2022-11-19T08:07:55.480Z,93.82
2022-11-19T08:10:42.628Z,93.73
2022-11-19T08:13:29.737Z,93.50
2022-11-19T08:16:35.662Z,93.77
2022-11-19T08:19:23.133Z,94.01
2022-11-19T08:22:13.656Z,92.54
2022-11-19T08:25:00.782Z,91.47
2022-11-19T08:27:47.700Z,90.51
2022-11-19T08:30:34.648Z,94.02
2022-11-19T08:33:21.833Z,92.66
2022-11-19T08:36:08.781Z,89.58
2022-11-19T08:39:00.428Z,90.21
2022-11-19T08:42:05.934Z,91.99
2022-11-19T08:44:54.941Z,92.12
2022-11-19T08:47:41.906Z,91.71
2022-11-19T08:50:29.710Z,91.43
2022-11-19T08:53:16.607Z,91.25
2022-11-19T08:56:03.697Z,91.13
2022-11-19T08:58:52.895Z,90.12
2022-11-19T09:01:40.057Z,91.96
2022-11-19T09:04:27.006Z,92.36
2022-11-19T09:07:14.022Z,92.30
2022-11-19T09:10:01.198Z,91.54
2022-11-19T09:12:49.403Z,90.49
2022-11-19T09:15:36.332Z,91.21
2022-11-19T09:18:23.481Z,90.98
2022-11-19T09:21:12.017Z,90.15
2022-11-19T09:23:58.977Z,90.50
2022-11-19T09:26:51.695Z,90.39
2022-11-19T09:29:39.952Z,89.79
2022-11-19T09:32:28.512Z,90.70
2022-11-19T09:35:16.190Z,90.81
2022-11-19T09:38:03.088Z,89.63
2022-11-19T09:40:53.985Z,89.68
2022-11-19T09:44:28.793Z,91.48
2022-11-19T09:47:55.911Z,90.59
2022-11-19T09:51:10.149Z,90.51
2022-11-19T09:54:17.701Z,91.41
2022-11-19T09:57:12.014Z,91.45
2022-11-19T10:00:01.812Z,91.25
2022-11-19T10:02:49.789Z,89.10
2022-11-19T10:06:17.609Z,88.72
2022-11-19T10:09:33.106Z,90.33
2022-11-19T10:13:12.009Z,90.34
2022-11-19T10:16:28.437Z,92.39
2022-11-19T10:19:51.584Z,91.54
2022-11-19T10:23:00.157Z,90.55
2022-11-19T10:25:50.034Z,89.72
2022-11-19T10:28:40.797Z,87.24
2022-11-19T10:31:39.685Z,88.29
2022-11-19T10:34:33.722Z,88.38
2022-11-19T10:37:23.725Z,88.35
2022-11-19T10:40:20.976Z,87.98
2022-11-19T10:43:26.401Z,88.62
2022-11-19T10:46:17.086Z,88.49
2022-11-19T10:49:04.860Z,88.53
2022-11-19T10:51:52.037Z,86.81
2022-11-19T10:54:39.972Z,87.25
2022-11-19T10:57:30.355Z,85.76
2022-11-19T11:00:18.310Z,85.83
2022-11-19T11:03:13.040Z,88.13
2022-11-19T11:06:05.235Z,86.07
2022-11-19T11:08:56.413Z,87.41
2022-11-19T11:12:05.002Z,88.12
2022-11-19T11:14:52.623Z,88.25
2022-11-19T11:17:42.577Z,88.94
2022-11-19T11:20:30.994Z,88.55
2022-11-19T11:23:24.058Z,88.67
2022-11-19T11:26:17.757Z,88.93
2022-11-19T11:29:33.777Z,88.07
2022-11-19T11:32:30.935Z,87.95
2022-11-19T11:35:38.712Z,88.27
2022-11-19T11:38:27.593Z,89.45
2022-11-19T11:42:03.785Z,88.16
2022-11-19T11:44:35.725Z,89.74
2022-11-19T11:47:36.840Z,90.00
2022-11-19T11:50:28.493Z,90.48
2022-11-19T11:53:27.596Z,91.53
2022-11-19T11:56:21.422Z,90.33
2022-11-19T11:59:28.416Z,89.92
2022-11-19T12:02:27.100Z,88.71
2022-11-19T12:05:18.138Z,88.12
2022-11-19T12:08:11.153Z,90.19
2022-11-19T12:11:24.297Z,89.69
2022-11-19T12:14:11.739Z,88.16
2022-11-19T12:17:32.861Z,88.06
2022-11-19T12:20:44.474Z,89.09
2022-11-19T12:24:00.282Z,88.90
2022-11-19T12:27:22.362Z,89.10
2022-11-19T12:30:27.954Z,88.22
2022-11-19T12:33:57.576Z,86.62
2022-11-19T12:37:09.975Z,86.55
2022-11-19T12:40:25.509Z,89.03
2022-11-19T12:43:34.692Z,90.19
2022-11-19T12:46:57.726Z,90.35
2022-11-19T12:50:16.067Z,89.17
2022-11-19T12:53:18.837Z,89.84
2022-11-19T12:57:01.014Z,89.03
2022-11-19T13:00:21.080Z,88.34
2022-11-19T13:03:24.837Z,88.50
2022-11-19T13:06:27.805Z,88.66
2022-11-19T13:09:47.213Z,88.33
2022-11-19T13:12:41.486Z,87.50
2022-11-19T13:15:58.776Z,87.30
2022-11-19T13:18:50.037Z,87.80
2022-11-19T13:22:15.385Z,86.88
2022-11-19T13:25:46.290Z,88.43
2022-11-19T13:28:42.613Z,88.64
2022-11-19T13:31:40.562Z,89.47
2022-11-19T13:35:04.748Z,88.99
2022-11-19T13:38:07.340Z,89.51
2022-11-19T13:41:07.205Z,88.68
2022-11-19T13:44:16.859Z,89.00
2022-11-19T13:47:09.022Z,89.84
2022-11-19T13:50:15.029Z,89.57
2022-11-19T13:53:12.674Z,88.59
2022-11-19T13:56:00.523Z,88.50
2022-11-19T13:58:54.919Z,88.60
2022-11-19T14:02:12.549Z,88.90
2022-11-19T14:05:42.678Z,91.04
2022-11-19T14:09:08.452Z,89.66
2022-11-19T14:12:29.596Z,89.78
2022-11-19T14:15:55.043Z,89.83
2022-11-19T14:19:07.687Z,88.76
2022-11-19T14:22:13.354Z,91.16
2022-11-19T14:25:18.998Z,92.87
2022-11-19T14:28:40.556Z,91.76
2022-11-19T14:31:27.510Z,90.54
2022-11-19T14:34:29.025Z,91.12
2022-11-19T14:37:39.928Z,89.12
2022-11-19T14:40:29.701Z,90.63
2022-11-19T14:43:46.220Z,90.66
2022-11-19T14:46:33.135Z,88.92
2022-11-19T14:49:35.705Z,90.18
2022-11-19T14:52:29.787Z,90.40
2022-11-19T14:55:21.577Z,89.87
2022-11-19T14:58:21.523Z,90.26
2022-11-19T15:01:20.860Z,90.28
2022-11-19T15:04:12.756Z,89.59
2022-11-19T15:07:01.597Z,90.75
2022-11-19T15:10:27.202Z,90.89
2022-11-19T15:13:25.974Z,93.16
2022-11-19T15:16:34.218Z,92.62
2022-11-19T15:20:04.986Z,93.48
2022-11-19T15:23:19.964Z,93.52
2022-11-19T15:27:14.762Z,92.93
2022-11-19T15:30:54.005Z,93.48
2022-11-19T15:37:08.650Z,92.87
2022-11-19T15:39:57.640Z,92.88
2022-11-19T15:42:52.982Z,92.70
2022-11-19T15:45:47.087Z,93.65
2022-11-19T15:48:42.741Z,92.99
2022-11-19T15:51:35.074Z,93.44
2022-11-19T15:54:30.396Z,91.94
2022-11-19T15:57:23.721Z,93.66
2022-11-19T16:00:17.629Z,93.45
2022-11-19T16:03:10.103Z,94.21
2022-11-19T16:06:08.863Z,93.34
2022-11-19T16:09:04.771Z,95.06
2022-11-19T16:12:11.226Z,95.08
2022-11-19T16:15:16.975Z,95.72
2022-11-19T16:18:03.952Z,95.17
2022-11-19T16:20:52.546Z,95.79
2022-11-19T16:24:00.526Z,95.44
2022-11-19T16:26:48.583Z,95.84
2022-11-19T16:29:40.389Z,95.53
2022-11-19T16:32:27.903Z,96.40
2022-11-19T16:35:24.619Z,93.79
2022-11-19T16:38:19.998Z,94.19
2022-11-19T16:41:26.467Z,96.15
2022-11-19T16:44:16.807Z,95.77
2022-11-19T16:47:06.685Z,95.64
2022-11-19T16:50:24.653Z,95.43
2022-11-19T16:53:11.566Z,96.49
2022-11-19T16:55:58.809Z,95.47
2022-11-19T16:58:46.363Z,96.27
2022-11-19T17:01:34.060Z,97.36
2022-11-19T17:04:23.912Z,97.37
2022-11-19T17:07:14.552Z,96.67
2022-11-19T17:10:35.337Z,94.75
2022-11-19T17:13:32.381Z,95.07
2022-11-19T17:16:22.675Z,96.10
2022-11-19T17:19:36.471Z,96.23
2022-11-19T17:22:28.465Z,95.98
2022-11-19T17:25:19.825Z,97.54
2022-11-19T17:28:06.802Z,97.33
2022-11-19T17:30:54.649Z,97.19
2022-11-19T17:34:07.072Z,96.20
2022-11-19T17:36:53.998Z,96.41
2022-11-19T17:39:40.933Z,95.99
2022-11-19T17:42:46.731Z,96.30
2022-11-19T17:45:33.712Z,93.95
2022-11-19T17:48:26.126Z,95.68
2022-11-19T17:51:15.764Z,94.87
2022-11-19T17:54:02.698Z,96.55
2022-11-19T17:56:49.843Z,96.67
2022-11-19T17:59:36.771Z,98.19
2022-11-19T18:02:23.697Z,96.40
2022-11-19T18:05:18.681Z,96.04
2022-11-19T18:08:05.855Z,96.54
2022-11-19T18:10:52.876Z,96.59
2022-11-19T18:13:41.203Z,96.47
2022-11-19T18:16:34.051Z,97.24
2022-11-19T18:19:26.788Z,96.21
2022-11-19T18:22:17.103Z,98.68
2022-11-19T18:25:14.646Z,97.39
2022-11-19T18:28:01.632Z,97.88
2022-11-19T18:30:48.569Z,97.42
2022-11-19T18:33:36.525Z,99.08
2022-11-19T18:36:25.034Z,97.80
2022-11-19T18:39:12.219Z,97.57
2022-11-19T18:41:59.377Z,97.28
2022-11-19T18:44:46.356Z,95.05
2022-11-19T18:47:33.330Z,95.03
2022-11-19T18:50:25.466Z,95.92
2022-11-19T18:53:16.788Z,96.45
2022-11-19T18:56:04.914Z,96.93
2022-11-19T18:58:52.222Z,97.21
2022-11-19T19:01:39.212Z,96.08
2022-11-19T19:04:26.425Z,96.97
2022-11-19T19:07:13.435Z,96.17
2022-11-19T19:10:00.365Z,95.95
2022-11-19T19:12:47.333Z,96.32
2022-11-19T19:15:34.325Z,95.20
2022-11-19T19:18:21.266Z,94.73
2022-11-19T19:21:19.756Z,94.84
2022-11-19T19:24:07.321Z,95.81
2022-11-19T19:26:54.491Z,96.13
2022-11-19T19:29:42.000Z,97.26
2022-11-19T19:32:28.908Z,98.12
2022-11-19T19:35:16.077Z,98.00
2022-11-19T19:38:03.168Z,97.29
2022-11-19T19:40:50.239Z,96.61
2022-11-19T19:43:37.271Z,98.48
2022-11-19T19:46:24.471Z,96.31
2022-11-19T19:49:11.408Z,96.64
2022-11-19T19:51:58.338Z,95.09
2022-11-19T19:54:45.494Z,95.10
2022-11-19T19:57:32.517Z,97.19
2022-11-19T20:00:19.820Z,98.63
2022-11-19T20:03:06.909Z,99.12
2022-11-19T20:05:53.823Z,99.32
2022-11-19T20:08:42.158Z,100.00
2022-11-19T20:11:29.160Z,98.80
2022-11-19T20:14:16.118Z,98.89
2022-11-19T20:17:03.066Z,98.81
2022-11-19T20:19:49.987Z,98.45
2022-11-19T20:22:37.118Z,96.79
2022-11-19T20:25:24.234Z,96.67
2022-11-19T20:28:11.287Z,97.09
2022-11-19T20:31:09.653Z,98.89
2022-11-19T20:33:59.417Z,100.00
2022-11-19T20:36:46.541Z,100.00
2022-11-19T20:39:33.446Z,99.56
2022-11-19T20:42:38.905Z,99.66
2022-11-19T20:45:26.121Z,98.92
2022-11-19T20:48:13.066Z,98.84
2022-11-19T20:50:59.935Z,97.50
2022-11-19T20:53:47.090Z,97.78
2022-11-19T20:56:34.448Z,96.60
2022-11-19T20:59:22.217Z,97.35
2022-11-19T21:02:09.925Z,95.72
2022-11-19T21:04:57.358Z,96.36
2022-11-19T21:07:44.498Z,98.78
2022-11-19T21:10:31.695Z,99.63
2022-11-19T21:13:18.603Z,100.00
2022-11-19T21:16:33.005Z,98.75
2022-11-19T21:19:20.434Z,98.16
2022-11-19T21:22:07.832Z,98.15
2022-11-19T21:24:54.750Z,98.40
2022-11-19T21:27:41.880Z,99.05
2022-11-19T21:30:28.931Z,97.24
2022-11-19T21:33:15.851Z,96.73
2022-11-19T21:36:03.709Z,95.93
2022-11-19T21:38:50.642Z,96.75
2022-11-19T21:41:38.207Z,99.24
2022-11-19T21:44:25.416Z,100.00
2022-11-19T21:47:12.353Z,100.00
2022-11-19T21:50:00.779Z,100.00
2022-11-19T21:52:47.847Z,100.00
2022-11-19T21:55:34.889Z,100.00
2022-11-19T21:58:21.817Z,100.00
2022-11-19T22:01:11.210Z,100.00
2022-11-19T22:03:58.425Z,99.53
2022-11-19T22:06:45.346Z,100.00
2022-11-19T22:09:32.202Z,100.00
2022-11-19T22:12:19.116Z,100.00
2022-11-19T22:15:07.346Z,100.00
2022-11-19T22:17:55.208Z,100.00
2022-11-19T22:20:43.289Z,100.00
2022-11-19T22:23:30.440Z,100.00
2022-11-19T22:26:17.397Z,100.00
2022-11-19T22:29:04.361Z,100.00
2022-11-19T22:31:51.474Z,100.00
2022-11-19T22:34:38.417Z,99.94
2022-11-19T22:37:25.566Z,100.00
2022-11-19T22:40:13.193Z,99.19
2022-11-19T22:43:00.114Z,100.00
2022-11-19T22:45:47.338Z,100.00
2022-11-19T22:48:35.637Z,100.00
2022-11-19T22:51:24.572Z,100.00
2022-11-19T22:54:11.753Z,100.00
2022-11-19T22:56:58.804Z,100.00
2022-11-19T22:59:45.759Z,100.00
2022-11-19T23:02:34.321Z,100.00
2022-11-19T23:05:21.250Z,100.00
2022-11-19T23:08:10.591Z,99.92
2022-11-19T23:11:03.920Z,98.79
2022-11-19T23:13:50.824Z,99.76
2022-11-19T23:16:38.432Z,100.00
2022-11-19T23:19:25.499Z,99.79
2022-11-19T23:22:12.616Z,100.00
2022-11-19T23:24:59.538Z,100.00
2022-11-19T23:27:46.456Z,100.00
2022-11-19T23:30:33.913Z,100.00
2022-11-19T23:33:22.153Z,99.77
2022-11-19T23:36:12.880Z,99.84
2022-11-19T23:39:00.775Z,99.52
2022-11-19T23:41:47.777Z,99.50
2022-11-19T23:44:34.710Z,100.00
2022-11-19T23:47:21.660Z,100.00
2022-11-19T23:50:08.941Z,100.00
2022-11-19T23:52:55.880Z,100.00
2022-11-19T23:55:50.205Z,99.66
2022-11-19T23:58:37.387Z,100.00
